Rochester, WA

2:41 AM PST on December 22, 2014 (GMT -0800)
GRAND MOUND KF7ZAO | Change Station
CLOSE
Current Station
Personal Weather Station
Location: Centralia, WA
Elevation: 157 ft
Nearby Weather Stations

Elev 157 ft 46.77 °N, 123.01 °W | Updated 2 seconds ago

Mostly Cloudy
Mostly Cloudy
45.5 °F
Feels Like 46 °F
N
0.0
Wind Variable Wind from WSW
Gusts 0.0 mph

Today
High -- | Low -- °F
--% Chance of Precip.
Yesterday
High -- | Low -- °F
Precip. -- in
7:54 AM 4:26 PM
New Moon, 0% visible
Pressure 30.20 in
Visibility 10.0 miles
Clouds Few 2300 ft
Mostly Cloudy 3200 ft
Mostly Cloudy 3800 ft
Windchill 46 °F
Dew Point 43 °F
Humidity 90%
Rainfall 0.00 in
Snow Depth Not available.
UV 0 out of 12
Pollen .50 out of 12
Air Quality Not available.
Flu Activity Not available.
METAR KCLS 221035Z AUTO 21003KT 10SM FEW023 BKN032 BKN038 09/09 A3020 RMK AO2

More Conditions Fewer Conditions

Pressure 30.20 in
Visibility 10.0 miles
Clouds Few 2300 ft
Mostly Cloudy 3200 ft
Mostly Cloudy 3800 ft
Windchill 46 °F
Dew Point 43 °F
Humidity 90%
Rainfall 0.00 in
Snow Depth Not available.
UV 0 out of 12
Pollen .50 out of 12
Air Quality Not available.
Flu Activity Not available.
METAR KCLS 221035Z AUTO 21003KT 10SM FEW023 BKN032 BKN038 09/09 A3020 RMK AO2

More Conditions Fewer Conditions

10-Day Weather Forecast

Almanac

Astronomy

Dec. 22, 2014 Rise Set
Actual Time
Civil Twilight
Nautical Twilight
Astronomical Twilight
Moon
Length of Visible Light
Length of Day
Tomorrow will be .
, % of the Moon is Illuminated

Today's Extremes

State Highs State Lows

Community

WunderPhotos

Upload Photos

1,779,583 photos uploaded!

WunderBlogs® & News

Nearby

Air Quality

  Air Quality AQ Index Pollutant
Not available.

Snow Depth

Station Depth Elevation

Earthquake Activity

City Distance Mag. Time & Date
Minimum magnitude displayed is 2.5.

Coastal Water Temperatures

Place Temperature

Nearby Weather Stations